Terminal Aerodrome Forecast
Issued by NWS Wichita, KS

Home | Current Version | Previous Version | Graphics & Text | Print | Product List | Glossary On
Versions: 1 2 3 4 5 6 7 8 9 10 11 12 13 14
543
FTUS43 KICT 271133
TAFICT
TAF
KICT 271133Z 2712/2812 36006KT P6SM BKN250
     FM271500 15013G18KT P6SM SCT030
     FM271800 17013G18KT P6SM VCTS SCT050CB
     FM272200 35019G27KT P6SM VCTS BKN030CB
     FM280200 35015KT P6SM BKN100
     FM280800 34013KT P6SM SCT070=

USA.gov is the U.S. government's official web portal to all federal, state and local government web resources and services.